Time;durP1;ratioP1;P1;durP2;ratioP2;P2;SDS_P1;SDS_P2;PMS_P1;PMS_P2;Temp;Humidity;BMP_temperature;BMP_pressure;BME280_temperature;BME280_humidity;BME280_pressure;Samples;Min_cycle;Max_cycle;Signal;HPM_P1;HPM_P2
2022/03/07 04:00:43;;;;;;;15.60;14.03;;;-1.50;99.90;;;;;;5759480;23;20238;-74
2022/03/07 04:03:08;;;;;;;15.03;13.40;;;-1.60;99.90;;;;;;4914904;29;20187;-74
2022/03/07 04:05:34;;;;;;;14.20;12.87;;;-1.50;99.90;;;;;;4916311;29;20175;-73
2022/03/07 04:08:00;;;;;;;18.07;14.30;;;-1.40;99.90;;;;;;4920086;29;20215;-74
2022/03/07 04:10:26;;;;;;;21.50;15.87;;;-1.40;99.90;;;;;;4917942;29;20175;-74
2022/03/07 04:12:51;;;;;;;16.77;14.33;;;-1.60;99.90;;;;;;4917484;29;20651;-74
2022/03/07 04:15:17;;;;;;;26.33;15.53;;;-1.60;99.90;;;;;;4937952;23;21339;-74
2022/03/07 04:17:44;;;;;;;20.73;16.03;;;-1.60;99.90;;;;;;4915051;29;20202;-74
2022/03/07 04:20:10;;;;;;;19.80;16.23;;;-1.70;99.90;;;;;;4914133;29;20187;-75
2022/03/07 04:22:37;;;;;;;17.83;14.77;;;-1.70;99.90;;;;;;4915622;29;20198;-75
2022/03/07 04:25:05;;;;;;;16.83;15.03;;;-1.80;99.90;;;;;;4915471;29;20194;-75
2022/03/07 04:27:30;;;;;;;20.27;15.50;;;-1.80;99.90;;;;;;4914685;29;20222;-75
2022/03/07 04:29:57;;;;;;;18.23;15.63;;;-1.80;99.90;;;;;;4914546;29;20617;-75
2022/03/07 04:32:23;;;;;;;19.30;15.83;;;-2.00;99.90;;;;;;4915466;29;20554;-74
2022/03/07 04:34:49;;;;;;;17.57;15.67;;;-2.10;99.90;;;;;;4914345;29;20190;-74
2022/03/07 04:37:15;;;;;;;17.87;14.97;;;-2.10;99.90;;;;;;4913326;29;20622;-75
2022/03/07 04:39:41;;;;;;;19.77;14.77;;;-2.20;99.90;;;;;;4915082;29;20187;-75
2022/03/07 04:42:07;;;;;;;22.40;16.57;;;-2.20;99.90;;;;;;4914165;29;20179;-74
2022/03/07 04:44:33;;;;;;;18.23;15.67;;;-2.30;99.90;;;;;;4915291;29;20666;-75
2022/03/07 04:46:58;;;;;;;17.93;16.10;;;-2.30;99.90;;;;;;4914871;29;20203;-75
2022/03/07 04:49:24;;;;;;;17.53;14.80;;;-2.30;99.90;;;;;;4905996;29;20229;-72
2022/03/07 04:51:50;;;;;;;19.33;15.30;;;-2.30;99.90;;;;;;4913762;29;20179;-71
2022/03/07 04:54:16;;;;;;;18.43;15.13;;;-2.40;99.90;;;;;;4911516;29;20183;-71
2022/03/07 04:56:47;;;;;;;20.43;15.43;;;-2.40;99.90;;;;;;4911311;29;20215;-71
2022/03/07 04:59:13;;;;;;;18.57;15.00;;;-2.40;99.90;;;;;;4896089;29;20560;-71
2022/03/07 05:01:39;;;;;;;17.27;14.17;;;-2.50;99.90;;;;;;4907016;29;20194;-71
2022/03/07 05:04:05;;;;;;;17.43;15.30;;;-2.50;99.90;;;;;;4915076;29;20183;-71
2022/03/07 05:06:31;;;;;;;18.63;14.47;;;-2.40;99.90;;;;;;4914850;29;20210;-70
2022/03/07 05:08:57;;;;;;;22.40;15.30;;;-2.50;99.90;;;;;;4915669;29;20251;-71
2022/03/07 05:11:23;;;;;;;20.63;16.37;;;-2.40;99.90;;;;;;4913445;29;20186;-71
2022/03/07 05:13:49;;;;;;;19.83;14.93;;;-2.50;99.90;;;;;;4903904;29;20187;-71
2022/03/07 05:16:15;;;;;;;20.03;14.63;;;-2.50;99.90;;;;;;4896720;29;20747;-71
2022/03/07 05:18:40;;;;;;;19.43;15.13;;;-2.40;99.90;;;;;;4896529;29;20203;-71
2022/03/07 05:21:06;;;;;;;21.20;15.40;;;-2.40;99.90;;;;;;4895963;29;20199;-71
2022/03/07 05:23:32;;;;;;;21.37;15.20;;;-2.40;99.90;;;;;;4895836;29;20278;-71
2022/03/07 05:25:58;;;;;;;17.43;14.40;;;-2.30;99.90;;;;;;4895326;29;20709;-72
2022/03/07 05:28:24;;;;;;;21.30;15.83;;;-2.40;99.90;;;;;;4895447;29;20332;-71
2022/03/07 05:30:49;;;;;;;18.80;15.00;;;-2.30;99.90;;;;;;4895851;29;20176;-71
2022/03/07 05:33:15;;;;;;;21.40;15.23;;;-2.30;99.90;;;;;;4895652;29;20653;-71
2022/03/07 05:35:41;;;;;;;22.90;15.03;;;-2.20;99.90;;;;;;4895689;29;20203;-71
2022/03/07 05:38:08;;;;;;;19.53;16.43;;;-2.30;99.90;;;;;;4895411;29;20194;-71
2022/03/07 05:40:34;;;;;;;22.30;15.77;;;-2.30;99.90;;;;;;4895317;29;20184;-71
2022/03/07 05:43:00;;;;;;;19.73;15.77;;;-2.30;99.90;;;;;;4895650;29;20641;-71
2022/03/07 05:45:27;;;;;;;22.10;15.80;;;-2.20;99.90;;;;;;4895571;29;20226;-71
2022/03/07 05:47:53;;;;;;;18.00;14.40;;;-2.20;99.90;;;;;;4894952;29;20266;-71
2022/03/07 05:50:19;;;;;;;20.13;14.97;;;-2.20;99.90;;;;;;4906264;29;20183;-71
2022/03/07 05:52:45;;;;;;;24.67;15.73;;;-2.20;99.90;;;;;;4914401;29;20187;-71
2022/03/07 05:55:11;;;;;;;16.57;14.73;;;-2.20;99.90;;;;;;4914116;29;20191;-71
2022/03/07 05:57:36;;;;;;;19.27;15.77;;;-2.10;99.90;;;;;;4914069;29;20198;-71
2022/03/07 06:00:07;;;;;;;18.00;14.87;;;-2.10;99.90;;;;;;4914556;29;20187;-71
2022/03/07 06:02:33;;;;;;;17.70;15.47;;;-2.10;99.90;;;;;;4913857;29;20269;-71
2022/03/07 06:04:58;;;;;;;16.33;12.90;;;-2.10;99.90;;;;;;4913038;29;20290;-71
2022/03/07 06:07:24;;;;;;;17.17;15.20;;;-2.10;99.90;;;;;;4913753;29;20191;-71
2022/03/07 06:09:50;;;;;;;23.50;16.40;;;-2.00;99.90;;;;;;4914207;29;20186;-71
2022/03/07 06:12:16;;;;;;;28.37;15.23;;;-1.90;99.90;;;;;;4914202;29;20198;-71
2022/03/07 06:14:41;;;;;;;19.63;14.73;;;-1.90;99.90;;;;;;4914284;29;20183;-72
2022/03/07 06:17:07;;;;;;;19.73;15.63;;;-1.80;99.90;;;;;;4913461;29;20223;-72
2022/03/07 06:19:33;;;;;;;21.83;15.87;;;-1.90;99.90;;;;;;4914302;29;20274;-72
2022/03/07 06:21:59;;;;;;;23.03;16.33;;;-1.80;99.90;;;;;;4913480;29;20194;-72
2022/03/07 06:24:28;;;;;;;20.33;15.20;;;-1.80;99.90;;;;;;4914143;29;20561;-72
2022/03/07 06:26:55;;;;;;;17.80;14.93;;;-1.70;99.90;;;;;;4912465;29;20371;-72
2022/03/07 06:29:21;;;;;;;21.90;15.23;;;-1.70;99.90;;;;;;4914083;29;20301;-72
2022/03/07 06:31:47;;;;;;;18.13;14.97;;;-1.60;99.90;;;;;;4912676;29;20179;-72
2022/03/07 06:34:13;;;;;;;17.03;14.70;;;-1.50;99.90;;;;;;4915737;29;20238;-72
2022/03/07 06:36:39;;;;;;;18.10;16.17;;;-1.50;99.90;;;;;;4921640;29;20203;-72
2022/03/07 06:39:06;;;;;;;22.83;15.67;;;-1.50;99.90;;;;;;4921008;29;20289;-72
2022/03/07 06:41:32;;;;;;;33.90;16.17;;;-1.40;99.90;;;;;;4917598;29;20186;-72
2022/03/07 06:43:59;;;;;;;16.43;12.63;;;-1.30;99.90;;;;;;4919876;29;20193;-72
2022/03/07 06:46:26;;;;;;;15.70;13.33;;;-1.30;99.90;;;;;;4917454;29;20258;-72
2022/03/07 06:48:51;;;;;;;15.70;14.03;;;-1.10;99.90;;;;;;4916588;29;20607;-72
2022/03/07 06:51:18;;;;;;;16.97;15.17;;;-0.90;99.90;;;;;;4898565;29;20187;-72
2022/03/07 06:53:44;;;;;;;17.47;15.87;;;-0.70;99.90;;;;;;4897225;29;20327;-71
2022/03/07 06:56:10;;;;;;;37.10;14.33;;;-0.50;99.90;;;;;;4898415;29;20239;-73
2022/03/07 06:58:36;;;;;;;16.63;15.10;;;-0.40;99.90;;;;;;4896661;29;20643;-72
2022/03/07 07:01:02;;;;;;;13.20;11.97;;;-0.20;99.90;;;;;;4897139;29;20192;-73
2022/03/07 07:03:27;;;;;;;11.73;10.63;;;-0.10;99.90;;;;;;4906443;29;20189;-72
2022/03/07 07:05:53;;;;;;;15.07;12.63;;;0.10;99.90;;;;;;4903525;29;20300;-71
2022/03/07 07:08:19;;;;;;;17.57;12.30;;;0.20;99.90;;;;;;4896310;29;20218;-72
2022/03/07 07:10:44;;;;;;;12.60;11.30;;;0.50;99.90;;;;;;4897063;29;20190;-72
2022/03/07 07:13:14;;;;;;;14.63;12.70;;;0.80;99.90;;;;;;4897999;29;20183;-71
2022/03/07 07:15:43;;;;;;;14.83;13.13;;;1.20;99.90;;;;;;4897554;29;20302;-71
2022/03/07 07:18:09;;;;;;;13.23;10.87;;;1.50;99.90;;;;;;4897499;29;20188;-71
2022/03/07 07:20:35;;;;;;;13.83;12.43;;;1.70;99.90;;;;;;4897902;29;20187;-71
2022/03/07 07:23:00;;;;;;;15.93;13.23;;;1.80;99.90;;;;;;4897643;29;20179;-71
2022/03/07 07:25:26;;;;;;;15.33;13.93;;;2.00;99.90;;;;;;4897902;29;20207;-71
2022/03/07 07:27:52;;;;;;;13.00;11.70;;;2.30;99.90;;;;;;4896189;29;20684;-71
2022/03/07 07:30:18;;;;;;;8.47;7.70;;;2.40;99.90;;;;;;4897656;29;20184;-72
2022/03/07 07:32:43;;;;;;;13.90;12.43;;;2.30;99.90;;;;;;4896946;29;20194;-72
2022/03/07 07:35:10;;;;;;;14.17;12.80;;;2.20;99.90;;;;;;4897602;29;20199;-72
2022/03/07 07:37:36;;;;;;;13.80;12.47;;;2.40;99.90;;;;;;4895729;29;20188;-72
2022/03/07 07:40:03;;;;;;;12.87;11.67;;;2.60;99.90;;;;;;4896453;29;20183;-72
2022/03/07 07:42:29;;;;;;;12.17;10.97;;;2.90;99.90;;;;;;4897212;29;20184;-72
2022/03/07 07:44:55;;;;;;;12.60;11.40;;;3.00;99.90;;;;;;4897468;29;20184;-71
2022/03/07 07:47:21;;;;;;;10.63;9.77;;;3.20;99.90;;;;;;4895705;29;20183;-71
2022/03/07 07:49:47;;;;;;;12.03;10.83;;;3.10;99.90;;;;;;4902217;29;20567;-72
2022/03/07 07:52:13;;;;;;;10.30;9.43;;;3.00;99.90;;;;;;4915903;29;20183;-71
2022/03/07 07:54:38;;;;;;;10.23;9.30;;;3.10;99.90;;;;;;4916088;29;20190;-71
2022/03/07 07:57:07;;;;;;;15.63;12.20;;;3.20;99.60;;;;;;4915642;29;20304;-72
2022/03/07 07:59:33;;;;;;;14.13;12.63;;;3.20;97.90;;;;;;4915702;29;20187;-70
2022/03/07 08:01:59;;;;;;;13.67;12.37;;;3.10;97.20;;;;;;4916123;29;20184;-74
2022/03/07 08:04:24;;;;;;;11.67;9.97;;;3.20;97.40;;;;;;4915887;29;20193;-71
2022/03/07 08:06:50;;;;;;;13.67;11.73;;;3.20;96.90;;;;;;4914161;29;20665;-71
2022/03/07 08:09:16;;;;;;;10.87;9.77;;;3.20;97.10;;;;;;4915555;29;20222;-70
2022/03/07 08:11:42;;;;;;;9.73;8.83;;;3.40;96.90;;;;;;4915684;29;20213;-71
2022/03/07 08:14:08;;;;;;;10.73;9.63;;;3.50;96.40;;;;;;4915478;29;20689;-71
2022/03/07 08:16:33;;;;;;;15.10;11.77;;;3.20;96.40;;;;;;4915634;29;20227;-71
2022/03/07 08:18:59;;;;;;;9.87;9.07;;;3.40;96.50;;;;;;4914229;29;20199;-70
2022/03/07 08:21:25;;;;;;;12.97;11.77;;;3.30;94.90;;;;;;4915003;29;20183;-70
2022/03/07 08:23:54;;;;;;;13.20;11.87;;;3.30;95.40;;;;;;4901940;29;20679;-70
2022/03/07 08:26:22;;;;;;;11.80;10.70;;;3.60;95.20;;;;;;4897514;29;20203;-70
2022/03/07 08:28:48;;;;;;;12.33;11.17;;;3.70;94.30;;;;;;4901372;29;20206;-70
2022/03/07 08:31:14;;;;;;;13.53;11.90;;;3.80;93.70;;;;;;4914295;29;20274;-70
2022/03/07 08:33:40;;;;;;;12.30;11.20;;;4.00;94.20;;;;;;4915553;29;20621;-70
2022/03/07 08:36:06;;;;;;;12.33;11.23;;;4.10;93.30;;;;;;4915426;29;20238;-72
2022/03/07 08:38:32;;;;;;;10.33;9.53;;;4.20;92.90;;;;;;4913710;29;20278;-71
2022/03/07 08:40:57;;;;;;;13.73;12.43;;;4.10;91.20;;;;;;4908321;29;20195;-72
2022/03/07 08:43:23;;;;;;;13.63;11.50;;;4.20;91.50;;;;;;4895613;29;20191;-71
2022/03/07 08:45:49;;;;;;;14.07;12.67;;;4.50;91.20;;;;;;4895571;29;20203;-71
2022/03/07 08:48:15;;;;;;;10.97;9.97;;;4.50;91.10;;;;;;4897450;29;20351;-73
2022/03/07 08:50:41;;;;;;;10.93;9.93;;;4.70;90.40;;;;;;4916674;29;20188;-71
2022/03/07 08:53:07;;;;;;;9.37;8.50;;;4.60;89.80;;;;;;4895616;29;20218;-71
2022/03/07 08:55:33;;;;;;;11.80;10.60;;;4.40;89.70;;;;;;4895418;29;20231;-71
2022/03/07 08:57:59;;;;;;;12.97;11.77;;;4.50;89.60;;;;;;4896447;29;20203;-72
2022/03/07 09:00:25;;;;;;;12.20;11.03;;;4.80;89.90;;;;;;4913987;29;20261;-72
2022/03/07 09:02:51;;;;;;;10.67;9.60;;;5.10;85.60;;;;;;4928466;29;20274;-72
2022/03/07 09:05:16;;;;;;;11.47;10.30;;;5.10;84.10;;;;;;4913991;29;20674;-72
2022/03/07 09:07:42;;;;;;;9.80;8.80;;;4.70;83.90;;;;;;4929134;29;20258;-72
2022/03/07 09:10:08;;;;;;;13.30;9.63;;;4.50;85.10;;;;;;4915025;29;20190;-72
2022/03/07 09:12:34;;;;;;;15.83;13.30;;;4.00;86.50;;;;;;4915099;29;20182;-72
2022/03/07 09:15:03;;;;;;;9.90;9.10;;;3.60;88.60;;;;;;4929543;29;20179;-72
2022/03/07 09:17:29;;;;;;;13.50;11.90;;;3.40;89.60;;;;;;4914715;29;20187;-72
2022/03/07 09:19:58;;;;;;;12.03;10.93;;;3.50;90.00;;;;;;4915055;29;20183;-71
2022/03/07 09:22:27;;;;;;;13.40;11.87;;;3.50;90.60;;;;;;4914978;29;20183;-72
2022/03/07 09:24:53;;;;;;;12.93;11.57;;;4.00;90.60;;;;;;4929555;29;20178;-71
2022/03/07 09:27:20;;;;;;;17.40;13.53;;;4.30;88.90;;;;;;4929280;29;20187;-71
2022/03/07 09:29:46;;;;;;;13.53;12.20;;;4.70;87.80;;;;;;4914866;29;20651;-72
2022/03/07 09:32:12;;;;;;;10.43;9.43;;;4.80;86.50;;;;;;4914954;29;20187;-72
2022/03/07 09:34:38;;;;;;;11.20;9.93;;;5.20;86.90;;;;;;4915059;29;20179;-72
2022/03/07 09:37:04;;;;;;;14.87;12.07;;;5.60;83.90;;;;;;4914497;29;20211;-72
2022/03/07 09:39:31;;;;;;;10.70;9.63;;;6.00;81.80;;;;;;4914930;29;20710;-72
2022/03/07 09:41:58;;;;;;;13.90;12.53;;;6.30;79.90;;;;;;4913608;29;20187;-72
2022/03/07 09:44:24;;;;;;;10.83;9.83;;;6.90;79.40;;;;;;4914828;29;20183;-72
2022/03/07 09:46:50;;;;;;;11.60;10.40;;;7.50;75.00;;;;;;4914413;29;20254;-74
2022/03/07 09:49:19;;;;;;;12.33;10.97;;;7.40;72.80;;;;;;4929025;29;20279;-72
2022/03/07 09:51:45;;;;;;;10.70;9.70;;;7.00;73.40;;;;;;4929169;29;20191;-72
2022/03/07 09:54:11;;;;;;;13.13;11.83;;;7.10;72.70;;;;;;4914932;29;20186;-73
2022/03/07 09:56:37;;;;;;;13.70;12.03;;;6.50;73.20;;;;;;4908019;29;20298;-72
2022/03/07 09:59:04;;;;;;;14.20;11.53;;;6.50;73.00;;;;;;4896232;29;20223;-72
2022/03/07 10:01:30;;;;;;;10.40;9.53;;;6.40;73.90;;;;;;4894131;29;20184;-72
2022/03/07 10:04:09;;;;;;;10.07;9.27;;;7.00;73.80;;;;;;4909892;29;20537;-74
2022/03/07 10:06:35;;;;;;;13.93;12.60;;;7.30;71.20;;;;;;4914167;29;20211;-72
2022/03/07 10:09:02;;;;;;;11.07;10.03;;;6.80;70.50;;;;;;4912721;29;20580;-73
2022/03/07 10:11:30;;;;;;;10.67;9.77;;;7.50;70.00;;;;;;4913780;29;20270;-72
2022/03/07 10:14:01;;;;;;;11.00;9.97;;;7.60;66.20;;;;;;4915909;29;20219;-72
2022/03/07 10:16:38;;;;;;;11.03;8.73;;;7.70;67.30;;;;;;4927347;23;20230;-75
2022/03/07 10:19:10;;;;;;;9.97;9.03;;;7.50;66.70;;;;;;4916744;29;20194;-75
2022/03/07 10:21:43;;;;;;;12.50;11.20;;;7.30;66.90;;;;;;4917791;29;20194;-74
2022/03/07 10:24:09;;;;;;;13.83;12.43;;;7.30;65.40;;;;;;4917976;29;20191;-75
2022/03/07 10:26:36;;;;;;;13.73;11.47;;;7.90;64.60;;;;;;4916297;29;20278;-74
2022/03/07 10:29:05;;;;;;;11.50;10.40;;;8.40;60.90;;;;;;4916393;29;20322;-74
2022/03/07 10:31:32;;;;;;;12.30;11.13;;;8.80;60.60;;;;;;4916232;29;20183;-74
2022/03/07 10:34:09;;;;;;;13.30;12.03;;;8.90;60.90;;;;;;4917169;29;20194;-74
2022/03/07 10:36:39;;;;;;;13.87;12.43;;;8.90;60.00;;;;;;4917132;29;20296;-74
2022/03/07 10:39:06;;;;;;;12.30;11.17;;;8.90;58.60;;;;;;4917833;29;20205;-75
2022/03/07 10:41:50;;;;;;;11.03;10.03;;;9.10;57.40;;;;;;4917722;29;20206;-74
2022/03/07 10:44:40;;;;;;;12.97;11.70;;;8.50;57.60;;;;;;4916511;29;20191;-75
2022/03/07 10:47:11;;;;;;;12.17;10.73;;;9.40;56.90;;;;;;4915760;29;20571;-74
2022/03/07 10:49:48;;;;;;;12.67;11.40;;;10.40;54.80;;;;;;4916907;29;20262;-75
2022/03/07 10:52:13;;;;;;;14.03;12.20;;;11.50;53.30;;;;;;4916925;29;20280;-74
2022/03/07 10:54:39;;;;;;;11.10;10.07;;;11.70;51.90;;;;;;4916894;29;20714;-73
2022/03/07 10:57:08;;;;;;;12.70;11.60;;;11.50;50.40;;;;;;4916285;29;20327;-69
2022/03/07 10:59:37;;;;;;;15.87;13.63;;;12.30;50.70;;;;;;4916845;29;20222;-69
2022/03/07 11:02:11;;;;;;;13.43;12.07;;;12.40;49.90;;;;;;4915371;29;20722;-68
2022/03/07 11:04:42;;;;;;;11.83;10.73;;;11.70;49.90;;;;;;4915550;29;20187;-70
2022/03/07 11:07:09;;;;;;;13.20;11.83;;;11.40;50.40;;;;;;4916232;29;20307;-69
2022/03/07 11:09:36;;;;;;;9.47;8.67;;;11.10;50.40;;;;;;4916600;29;20258;-69
2022/03/07 11:12:04;;;;;;;13.33;12.13;;;10.40;49.80;;;;;;4903250;29;20217;-71
2022/03/07 11:14:29;;;;;;;12.70;11.60;;;9.90;51.30;;;;;;4915673;29;20182;-72
2022/03/07 11:16:56;;;;;;;11.87;10.80;;;10.40;51.50;;;;;;4915866;29;20695;-71
2022/03/07 11:19:24;;;;;;;13.93;12.63;;;11.30;49.40;;;;;;4914822;29;20703;-71
2022/03/07 11:21:51;;;;;;;13.03;11.17;;;10.60;50.00;;;;;;4914922;29;20191;-71
2022/03/07 11:24:21;;;;;;;13.63;12.43;;;10.50;49.80;;;;;;4915700;29;20569;-71
2022/03/07 11:26:49;;;;;;;14.53;13.13;;;11.00;49.70;;;;;;4914597;29;20215;-73
2022/03/07 11:29:16;;;;;;;10.33;9.33;;;11.40;48.40;;;;;;4916059;29;20598;-71
2022/03/07 11:31:42;;;;;;;11.20;10.17;;;11.90;46.80;;;;;;4915978;29;20448;-71
2022/03/07 11:34:09;;;;;;;11.17;10.13;;;11.40;46.80;;;;;;4914741;29;20175;-71
2022/03/07 11:36:44;;;;;;;9.67;8.90;;;10.80;48.70;;;;;;4915690;29;20290;-72
2022/03/07 11:39:11;;;;;;;12.37;11.13;;;11.40;48.40;;;;;;4914799;29;20538;-71
2022/03/07 11:41:38;;;;;;;8.87;8.07;;;11.30;47.80;;;;;;4915747;29;20331;-71
2022/03/07 11:44:09;;;;;;;11.53;10.33;;;11.60;46.90;;;;;;4916334;29;20195;-70
2022/03/07 11:46:38;;;;;;;13.50;11.60;;;11.70;46.40;;;;;;4916559;29;20255;-72
2022/03/07 11:49:06;;;;;;;13.07;11.67;;;11.50;46.30;;;;;;4915826;29;20303;-72
2022/03/07 11:51:36;;;;;;;10.60;9.60;;;11.70;46.00;;;;;;4916607;29;20686;-71
2022/03/07 11:54:02;;;;;;;11.17;10.17;;;12.50;44.80;;;;;;4915440;29;20273;-72
2022/03/07 11:56:37;;;;;;;9.10;8.30;;;12.40;44.40;;;;;;4916764;29;20699;-72
2022/03/07 11:59:11;;;;;;;11.33;10.13;;;12.10;44.40;;;;;;4914965;29;20543;-71
2022/03/07 12:01:37;;;;;;;13.50;10.83;;;11.50;45.50;;;;;;4914789;29;20187;-70
2022/03/07 12:04:08;;;;;;;12.27;10.97;;;11.70;45.40;;;;;;4916215;29;20183;-71
2022/03/07 12:06:41;;;;;;;12.47;11.20;;;10.80;45.80;;;;;;4915071;29;20210;-71
2022/03/07 12:09:08;;;;;;;12.50;11.23;;;10.80;46.00;;;;;;4916442;29;20230;-76
2022/03/07 12:11:35;;;;;;;10.53;9.13;;;11.50;45.80;;;;;;4912861;29;20556;-75
2022/03/07 12:14:07;;;;;;;12.53;11.33;;;11.30;45.30;;;;;;4916114;29;20671;-74
2022/03/07 12:16:41;;;;;;;10.80;9.90;;;11.00;45.60;;;;;;4913692;29;20243;-75
2022/03/07 12:19:11;;;;;;;11.40;10.40;;;10.70;46.10;;;;;;4895940;29;20191;-75
2022/03/07 12:21:42;;;;;;;16.10;12.93;;;10.30;46.30;;;;;;4896167;29;20362;-75
2022/03/07 12:24:18;;;;;;;12.70;11.37;;;10.40;46.70;;;;;;4894724;29;20278;-75
2022/03/07 12:26:45;;;;;;;12.60;11.40;;;11.60;45.60;;;;;;4893443;29;20283;-75
2022/03/07 12:29:11;;;;;;;12.00;10.90;;;11.70;44.50;;;;;;4896259;29;20214;-75
2022/03/07 12:31:37;;;;;;;9.83;9.00;;;11.40;44.40;;;;;;4896498;29;20186;-75
2022/03/07 12:34:07;;;;;;;14.33;12.93;;;11.50;43.90;;;;;;4895284;29;20267;-75
2022/03/07 12:36:33;;;;;;;10.07;9.23;;;10.50;45.50;;;;;;4895916;29;20210;-76
2022/03/07 12:39:02;;;;;;;13.93;12.50;;;11.20;45.90;;;;;;4896322;29;20194;-76
2022/03/07 12:41:34;;;;;;;19.83;10.90;;;11.10;45.20;;;;;;4896327;29;20645;-75
2022/03/07 12:44:02;;;;;;;13.13;11.80;;;11.30;44.40;;;;;;4895537;29;20188;-75
2022/03/07 12:46:28;;;;;;;11.90;10.80;;;11.30;45.10;;;;;;4896913;29;20259;-75
2022/03/07 12:48:55;;;;;;;12.90;11.63;;;11.80;43.40;;;;;;4894600;29;20222;-75
2022/03/07 12:51:22;;;;;;;8.90;8.00;;;12.60;43.30;;;;;;4896358;29;20279;-75
2022/03/07 12:53:53;;;;;;;10.57;9.57;;;12.60;42.40;;;;;;4896941;29;20278;-75
2022/03/07 12:56:23;;;;;;;12.50;11.20;;;12.10;42.90;;;;;;4895317;29;20243;-74
2022/03/07 12:58:54;;;;;;;12.47;11.20;;;12.30;42.60;;;;;;4896320;29;20222;-75
2022/03/07 13:01:24;;;;;;;12.97;11.73;;;12.80;41.70;;;;;;4896615;29;20199;-75
2022/03/07 13:03:52;;;;;;;12.10;10.90;;;13.20;40.90;;;;;;4896572;29;20190;-75
2022/03/07 13:06:23;;;;;;;13.00;11.73;;;12.50;42.30;;;;;;4895645;29;20715;-75
2022/03/07 13:08:58;;;;;;;12.57;11.23;;;12.40;42.40;;;;;;4910799;29;20214;-75
2022/03/07 13:11:36;;;;;;;11.13;10.10;;;13.00;41.50;;;;;;4914780;29;20269;-76
2022/03/07 13:14:03;;;;;;;13.03;11.63;;;13.40;41.00;;;;;;4913390;29;20183;-75
2022/03/07 13:16:34;;;;;;;13.63;12.23;;;13.30;41.30;;;;;;4913329;29;20768;-75
2022/03/07 13:19:03;;;;;;;14.97;12.20;;;13.50;41.10;;;;;;4913114;29;20619;-76
2022/03/07 13:21:41;;;;;;;13.73;12.53;;;14.40;39.60;;;;;;4914357;29;20187;-76
2022/03/07 13:24:09;;;;;;;12.20;11.00;;;14.00;39.20;;;;;;4912161;29;20191;-76
2022/03/07 13:26:36;;;;;;;14.70;12.60;;;14.80;39.00;;;;;;4895774;29;20214;-76
2022/03/07 13:29:20;;;;;;;11.40;10.33;;;15.00;37.80;;;;;;4904097;29;20617;-76
2022/03/07 13:31:52;;;;;;;13.37;11.87;;;14.00;38.80;;;;;;4908585;29;20302;-76
2022/03/07 13:34:20;;;;;;;11.83;10.73;;;12.90;40.70;;;;;;4899890;29;20187;-75
2022/03/07 13:36:49;;;;;;;11.00;9.67;;;13.20;40.10;;;;;;4896520;29;20312;-75
2022/03/07 13:39:29;;;;;;;9.47;8.63;;;12.80;40.00;;;;;;4912897;29;20214;-76
2022/03/07 13:41:58;;;;;;;13.00;11.40;;;12.40;40.10;;;;;;4914350;29;20187;-76
2022/03/07 13:44:25;;;;;;;12.83;11.67;;;11.60;42.30;;;;;;4915413;29;20214;-75
2022/03/07 13:46:58;;;;;;;13.27;11.73;;;11.70;42.70;;;;;;4914756;29;20297;-75
2022/03/07 13:49:28;;;;;;;13.10;11.80;;;10.70;43.20;;;;;;4918820;29;20210;-76
2022/03/07 13:51:56;;;;;;;14.53;13.13;;;10.50;43.90;;;;;;4900031;29;20694;-76
2022/03/07 13:54:22;;;;;;;12.67;11.57;;;10.70;44.50;;;;;;4897590;29;20219;-75
2022/03/07 13:56:48;;;;;;;13.93;12.53;;;11.00;43.50;;;;;;4898587;29;20215;-76
2022/03/07 13:59:15;;;;;;;11.27;10.23;;;10.80;43.60;;;;;;4899500;29;20351;-75
2022/03/07 14:01:43;;;;;;;14.93;13.43;;;10.00;44.20;;;;;;4897533;29;20187;-75
2022/03/07 14:04:18;;;;;;;10.17;9.30;;;9.80;45.60;;;;;;4898286;29;20668;-75
2022/03/07 14:06:45;;;;;;;9.80;8.80;;;9.80;45.30;;;;;;4898883;29;20207;-76
2022/03/07 14:09:13;;;;;;;15.53;14.13;;;10.20;45.60;;;;;;4897861;29;20218;-75
2022/03/07 14:11:42;;;;;;;15.33;13.70;;;10.10;45.50;;;;;;4899205;29;20254;-76
2022/03/07 14:14:19;;;;;;;15.90;11.83;;;9.70;46.10;;;;;;4899299;29;20231;-76
2022/03/07 14:16:47;;;;;;;15.40;13.77;;;9.00;46.40;;;;;;4898627;29;20357;-76
2022/03/07 14:19:13;;;;;;;14.63;13.13;;;9.70;46.90;;;;;;4899182;29;20211;-75
2022/03/07 14:21:40;;;;;;;14.80;13.33;;;9.60;46.10;;;;;;4897911;29;20743;-75
2022/03/07 14:24:07;;;;;;;16.50;13.87;;;9.10;47.30;;;;;;4899164;29;20183;-76
2022/03/07 14:26:33;;;;;;;11.17;10.00;;;8.80;47.80;;;;;;4901767;29;20208;-76
2022/03/07 14:29:03;;;;;;;18.17;13.40;;;9.00;48.00;;;;;;4916129;29;20214;-76
2022/03/07 14:31:31;;;;;;;15.97;14.37;;;9.30;47.50;;;;;;4916475;29;20687;-76
2022/03/07 14:33:57;;;;;;;12.47;11.30;;;8.80;47.70;;;;;;4916592;29;20536;-76
2022/03/07 14:36:23;;;;;;;14.90;12.80;;;8.00;48.90;;;;;;4916786;29;20687;-76
2022/03/07 14:38:48;;;;;;;15.20;13.60;;;7.40;50.40;;;;;;4916718;29;20193;-77
2022/03/07 14:41:14;;;;;;;14.60;12.27;;;7.40;51.00;;;;;;4918942;29;20187;-76
2022/03/07 14:43:40;;;;;;;13.97;12.67;;;7.20;51.00;;;;;;4918515;29;20183;-77
2022/03/07 14:46:06;;;;;;;14.10;12.70;;;7.00;51.40;;;;;;4916564;29;20222;-76
2022/03/07 14:48:34;;;;;;;17.33;14.23;;;7.10;51.20;;;;;;4916098;29;20221;-76
2022/03/07 14:51:00;;;;;;;14.10;12.63;;;7.30;51.90;;;;;;4916528;29;20183;-76
2022/03/07 14:53:27;;;;;;;14.20;12.80;;;8.10;49.70;;;;;;4916457;29;20179;-76
2022/03/07 14:55:53;;;;;;;15.67;14.13;;;8.10;49.60;;;;;;4918452;29;20211;-76
2022/03/07 14:58:21;;;;;;;14.73;12.47;;;8.40;49.40;;;;;;4920638;29;20187;-76
2022/03/07 15:00:47;;;;;;;13.40;12.10;;;9.10;48.60;;;;;;4917291;29;20196;-76
2022/03/07 15:03:12;;;;;;;10.97;10.00;;;9.60;47.20;;;;;;4920531;29;20187;-77
2022/03/07 15:05:38;;;;;;;16.67;13.43;;;9.00;46.70;;;;;;4917421;29;20183;-77
2022/03/07 15:08:04;;;;;;;14.20;12.77;;;8.30;48.20;;;;;;4915895;29;20210;-77
2022/03/07 15:10:31;;;;;;;18.13;14.93;;;7.80;49.10;;;;;;4917341;29;20190;-75
2022/03/07 15:12:57;;;;;;;14.70;13.20;;;7.30;50.70;;;;;;4915965;29;20204;-76
2022/03/07 15:15:26;;;;;;;11.73;10.47;;;6.90;52.00;;;;;;4916558;29;20246;-76
2022/03/07 15:17:52;;;;;;;14.57;12.00;;;6.50;52.00;;;;;;4915662;29;20202;-76
2022/03/07 15:20:18;;;;;;;15.57;13.97;;;6.20;53.10;;;;;;4917275;29;20187;-75
2022/03/07 15:22:45;;;;;;;14.13;12.47;;;6.00;53.70;;;;;;4916900;29;20646;-76
2022/03/07 15:25:11;;;;;;;11.83;10.63;;;5.80;54.80;;;;;;4916947;29;20624;-76
2022/03/07 15:27:37;;;;;;;12.67;11.33;;;5.50;54.90;;;;;;4902834;29;20290;-76
2022/03/07 15:30:06;;;;;;;15.50;13.20;;;5.30;55.30;;;;;;4903195;29;20199;-76
2022/03/07 15:32:32;;;;;;;15.13;13.00;;;5.30;55.60;;;;;;4913873;29;20210;-75
2022/03/07 15:34:58;;;;;;;12.73;11.20;;;5.30;55.80;;;;;;4915114;29;20262;-76
2022/03/07 15:37:24;;;;;;;16.80;13.00;;;5.40;55.80;;;;;;4913300;29;20247;-75
2022/03/07 15:39:50;;;;;;;16.40;14.07;;;5.30;55.50;;;;;;4913655;29;20703;-76
2022/03/07 15:42:16;;;;;;;17.37;13.37;;;5.40;56.00;;;;;;4914895;29;20274;-76
2022/03/07 15:44:42;;;;;;;12.67;11.33;;;5.50;55.40;;;;;;4914612;29;20727;-76
2022/03/07 15:47:08;;;;;;;10.13;9.23;;;5.70;54.90;;;;;;4913217;29;20229;-76
2022/03/07 15:49:34;;;;;;;10.77;9.77;;;5.60;54.80;;;;;;4915604;29;20636;-76
2022/03/07 15:52:00;;;;;;;14.30;12.77;;;5.50;55.30;;;;;;4915452;29;20191;-76
2022/03/07 15:54:26;;;;;;;14.77;10.87;;;5.40;55.90;;;;;;4915190;29;20179;-76
2022/03/07 15:56:53;;;;;;;13.97;12.50;;;5.50;55.20;;;;;;4915917;29;20671;-76
2022/03/07 15:59:21;;;;;;;17.53;15.83;;;5.40;55.60;;;;;;4916217;29;20222;-76
2022/03/07 16:01:48;;;;;;;11.70;10.47;;;5.30;55.80;;;;;;4914960;29;20277;-76
2022/03/07 16:04:14;;;;;;;19.30;12.30;;;5.30;55.60;;;;;;4914899;29;20187;-75
2022/03/07 16:06:41;;;;;;;18.23;14.70;;;5.40;56.30;;;;;;4916230;29;20245;-76
2022/03/07 16:09:08;;;;;;;12.13;10.93;;;5.80;55.40;;;;;;4914366;29;20207;-76
2022/03/07 16:11:35;;;;;;;16.87;14.63;;;6.20;54.20;;;;;;4915037;29;20186;-76
2022/03/07 16:14:00;;;;;;;17.77;14.20;;;6.00;53.80;;;;;;4915015;29;20633;-76
2022/03/07 16:16:29;;;;;;;17.53;14.40;;;5.80;54.80;;;;;;4940562;23;20321;-75
2022/03/07 16:18:56;;;;;;;16.20;14.43;;;5.70;54.70;;;;;;4934320;29;20183;-74
2022/03/07 16:21:25;;;;;;;14.83;12.70;;;5.60;55.20;;;;;;4934007;29;20654;-75
2022/03/07 16:23:54;;;;;;;17.00;15.20;;;5.70;55.30;;;;;;4935008;29;20217;-74
2022/03/07 16:26:21;;;;;;;14.97;12.43;;;5.60;55.30;;;;;;4934733;29;20274;-74
2022/03/07 16:28:47;;;;;;;15.67;11.83;;;5.60;56.00;;;;;;4934207;29;20218;-74
2022/03/07 16:31:13;;;;;;;15.87;13.73;;;5.70;55.10;;;;;;4933592;29;20542;-74
2022/03/07 16:33:39;;;;;;;16.37;13.83;;;5.90;55.10;;;;;;4933397;29;20225;-74